Time;durP1;ratioP1;P1;durP2;ratioP2;P2;SDS_P1;SDS_P2;PMS_P1;PMS_P2;Temp;Humidity;BMP_temperature;BMP_pressure;BME280_temperature;BME280_humidity;BME280_pressure;Samples;Min_cycle;Max_cycle;Signal;HPM_P1;HPM_P2
2022/03/17 00:00:12;;;;;;;;;27.00;23.33;;;;;12.26;84.77;101739.59;5078081;28;45329;-70
2022/03/17 00:02:38;;;;;;;;;29.67;25.33;;;;;12.26;84.14;101736.09;5078350;27;45450;-70
2022/03/17 00:05:05;;;;;;;;;27.33;25.67;;;;;12.35;84.41;101765.84;5078375;27;45372;-70
2022/03/17 00:07:31;;;;;;;;;24.00;20.00;;;;;12.39;83.61;101785.19;5077719;27;45265;-70
2022/03/17 00:09:57;;;;;;;;;30.00;25.67;;;;;12.39;82.42;101806.31;5078400;27;45391;-70
2022/03/17 00:12:23;;;;;;;;;28.00;27.00;;;;;12.27;80.74;101790.63;5078155;27;45544;-70
2022/03/17 00:14:50;;;;;;;;;35.33;31.00;;;;;12.18;79.40;101812.75;5078108;27;46473;-70
2022/03/17 00:17:16;;;;;;;;;33.67;29.33;;;;;12.03;78.51;101808.53;5077981;27;45438;-70
2022/03/17 00:19:42;;;;;;;;;38.00;29.67;;;;;11.94;77.58;101827.13;5077583;27;45385;-72
2022/03/17 00:22:08;;;;;;;;;30.33;28.33;;;;;11.90;77.27;101833.28;5065192;27;45560;-72
2022/03/17 00:24:37;;;;;;;;;29.67;26.67;;;;;11.76;76.98;101825.50;5057539;28;46642;-70
2022/03/17 00:27:05;;;;;;;;;31.33;25.67;;;;;11.76;76.85;101843.97;5059125;28;45422;-71
2022/03/17 00:29:32;;;;;;;;;28.00;26.67;;;;;11.65;77.17;101831.75;5058707;28;45700;-71
2022/03/17 00:31:58;;;;;;;;;29.00;25.67;;;;;11.63;76.47;101852.03;5059047;28;45482;-71
2022/03/17 00:34:23;;;;;;;;;31.67;27.00;;;;;11.49;76.50;101838.94;5059112;28;46294;-70
2022/03/17 00:36:49;;;;;;;;;32.33;30.67;;;;;11.57;75.67;101861.75;5059148;28;45292;-70
2022/03/17 00:39:15;;;;;;;;;27.67;25.00;;;;;11.49;76.41;101854.78;5059136;28;45817;-71
2022/03/17 00:41:41;;;;;;;;;29.00;24.67;;;;;11.41;76.40;101846.03;5059215;28;45354;-71
2022/03/17 00:44:06;;;;;;;;;34.00;25.33;;;;;11.42;76.40;101874.16;5058456;28;45992;-70
2022/03/17 00:46:32;;;;;;;;;29.00;27.67;;;;;11.46;76.51;101875.03;5059291;28;45412;-70
2022/03/17 00:48:57;;;;;;;;;22.33;22.33;;;;;11.41;75.67;101872.41;5058927;28;45204;-71
2022/03/17 00:51:22;;;;;;;;;29.67;23.00;;;;;11.37;76.02;101870.72;5059333;28;45351;-71
2022/03/17 00:53:48;;;;;;;;;27.67;25.00;;;;;11.26;75.50;101854.09;5059013;28;46605;-71
2022/03/17 00:56:13;;;;;;;;;25.00;22.00;;;;;11.28;75.57;101870.75;5058774;28;45360;-71
2022/03/17 00:58:38;;;;;;;;;25.33;25.00;;;;;11.28;75.23;101889.22;5058840;28;45718;-71
2022/03/17 01:01:04;;;;;;;;;28.67;23.33;;;;;11.12;74.99;101868.25;5058587;28;45309;-71
2022/03/17 01:03:29;;;;;;;;;24.33;21.67;;;;;11.23;75.09;101906.84;5058464;28;46679;-71
2022/03/17 01:05:55;;;;;;;;;29.67;26.00;;;;;11.08;74.83;101874.44;5058663;28;45284;-71
2022/03/17 01:08:20;;;;;;;;;22.33;20.33;;;;;11.21;75.04;101903.31;5058608;28;45401;-71
2022/03/17 01:10:46;;;;;;;;;22.33;21.67;;;;;11.28;74.99;101915.59;5058579;28;45309;-71
2022/03/17 01:13:11;;;;;;;;;25.33;23.00;;;;;11.19;75.01;101919.16;5058197;28;46291;-71
2022/03/17 01:15:37;;;;;;;;;31.67;23.33;;;;;11.20;74.78;101920.06;5057968;28;45319;-71
2022/03/17 01:18:02;;;;;;;;;26.00;23.00;;;;;11.12;74.82;101902.53;5058212;28;45331;-70
2022/03/17 01:20:29;;;;;;;;;25.33;22.00;;;;;11.17;74.64;101922.69;5064817;28;45227;-71
2022/03/17 01:22:55;;;;;;;;;25.67;24.67;;;;;11.14;74.74;101913.06;5078787;27;46634;-70
2022/03/17 01:25:20;;;;;;;;;23.67;21.33;;;;;10.91;74.47;101897.38;5078490;27;45463;-71
2022/03/17 01:27:46;;;;;;;;;21.67;21.00;;;;;11.01;74.35;101925.44;5078806;27;45429;-70
2022/03/17 01:30:12;;;;;;;;;28.00;24.67;;;;;11.18;74.08;101950.81;5077585;28;45397;-71
2022/03/17 01:32:40;;;;;;;;;29.33;26.67;;;;;11.01;74.26;101924.53;5078387;27;46987;-70
2022/03/17 01:35:08;;;;;;;;;27.67;27.33;;;;;11.05;74.23;101942.09;5078552;27;45410;-70
2022/03/17 01:37:34;;;;;;;;;25.00;20.33;;;;;11.03;74.67;101947.38;5078328;27;45262;-70
2022/03/17 01:39:59;;;;;;;;;27.00;24.33;;;;;11.09;74.23;101959.63;5078575;27;45518;-71
2022/03/17 01:42:25;;;;;;;;;30.33;26.00;;;;;11.02;74.71;101964.06;5078440;27;45385;-72
2022/03/17 01:44:50;;;;;;;;;28.00;24.67;;;;;11.06;74.09;101967.56;5078249;27;45371;-71
2022/03/17 01:47:28;;;;;;;;;23.67;20.67;;;;;11.04;74.31;101978.13;5078570;27;45273;-71
2022/03/17 01:50:02;;;;;;;;;24.00;22.33;;;;;10.86;74.29;101942.16;5078431;28;45461;-70
2022/03/17 01:52:28;;;;;;;;;20.67;20.67;;;;;10.91;74.24;101956.22;5077993;27;47600;-71
2022/03/17 01:54:54;;;;;;;;;25.00;21.33;;;;;10.90;74.39;101972.91;5077419;27;45834;-70
2022/03/17 01:57:20;;;;;;;;;24.33;22.33;;;;;10.87;74.27;101975.56;5078298;27;45456;-70
2022/03/17 01:59:48;;;;;;;;;34.67;26.33;;;;;10.90;74.74;101990.47;5077914;27;45274;-70
2022/03/17 02:02:14;;;;;;;;;24.00;22.33;;;;;10.88;74.70;101987.84;5077143;27;46440;-70
2022/03/17 02:04:43;;;;;;;;;29.00;24.33;;;;;10.88;74.67;101989.63;5077301;27;45364;-71
2022/03/17 02:07:11;;;;;;;;;31.67;27.33;;;;;10.85;75.00;101997.50;5077849;27;45343;-70
2022/03/17 02:09:37;;;;;;;;;23.00;20.33;;;;;10.79;75.07;101990.53;5076419;27;45473;-70
2022/03/17 02:14:54;;;;;;;;;28.00;21.33;;;;;10.82;75.25;102014.22;5077766;28;45379;-70
2022/03/17 02:17:21;;;;;;;;;26.00;22.00;;;;;10.84;75.18;102015.09;5077787;27;45339;-71
2022/03/17 02:19:47;;;;;;;;;21.00;20.00;;;;;10.76;74.98;102019.50;5077954;27;45386;-70
2022/03/17 02:22:15;;;;;;;;;31.33;24.00;;;;;10.74;74.73;102031.81;5077494;27;45364;-71
2022/03/17 02:27:31;;;;;;;;;25.67;22.33;;;;;10.58;73.53;102031.84;5077962;28;45272;-70
2022/03/17 02:29:56;;;;;;;;;27.67;19.33;;;;;10.48;73.84;102024.84;5077882;27;45324;-70
2022/03/17 02:32:22;;;;;;;;;26.33;21.67;;;;;10.55;73.68;102050.28;5076878;27;45409;-70
2022/03/17 02:34:47;;;;;;;;;26.67;18.67;;;;;10.36;73.67;102025.72;5077704;27;45371;-70
2022/03/17 02:37:13;;;;;;;;;23.00;20.00;;;;;10.36;73.53;102043.28;5077694;28;45428;-70
2022/03/17 02:39:39;;;;;;;;;17.33;13.67;;;;;10.50;73.30;102065.22;5077665;27;45201;-71
2022/03/17 02:42:05;;;;;;;;;24.33;19.33;;;;;10.42;73.16;102065.22;5077473;27;46383;-71
2022/03/17 02:44:32;;;;;;;;;22.67;18.00;;;;;10.35;73.03;102070.50;5077270;27;45533;-71
2022/03/17 02:46:57;;;;;;;;;19.00;16.00;;;;;10.31;73.30;102066.97;5077301;28;45326;-70
2022/03/17 02:49:23;;;;;;;;;18.33;14.67;;;;;10.29;72.92;102072.19;5077627;28;45781;-70
2022/03/17 02:51:49;;;;;;;;;17.67;16.67;;;;;9.91;73.18;102020.44;5077235;27;45852;-71
2022/03/17 02:54:14;;;;;;;;;20.33;17.33;;;;;10.28;72.55;102095.91;5077458;27;45370;-71
2022/03/17 02:56:40;;;;;;;;;16.67;16.33;;;;;10.22;72.39;102095.91;5077282;27;45376;-71
2022/03/17 02:59:05;;;;;;;;;17.50;16.00;;;;;10.15;73.06;102092.41;5077682;27;45312;-71
2022/03/17 03:01:30;;;;;;;;;20.67;16.33;;;;;10.13;73.07;102088.00;5076753;28;46375;-71
2022/03/17 03:03:56;;;;;;;;;17.00;16.00;;;;;10.09;73.08;102092.38;5077126;28;45449;-70
2022/03/17 03:06:21;;;;;;;;;16.67;15.33;;;;;10.14;73.24;102114.31;5080997;28;45746;-70
2022/03/17 03:08:47;;;;;;;;;16.67;14.00;;;;;9.94;72.67;102091.47;5079437;28;45329;-70
2022/03/17 03:11:13;;;;;;;;;17.00;14.00;;;;;9.86;73.15;102082.72;5080567;27;46472;-72
2022/03/17 03:13:38;;;;;;;;;12.67;12.67;;;;;10.05;72.86;102133.63;5080744;28;45327;-71
2022/03/17 03:16:04;;;;;;;;;20.67;18.00;;;;;10.00;72.76;102127.44;5080792;28;45234;-71
2022/03/17 03:18:29;;;;;;;;;18.00;15.00;;;;;10.03;73.05;102137.97;5080998;27;45283;-71
2022/03/17 03:20:55;;;;;;;;;13.67;13.00;;;;;10.04;72.86;102136.25;5080295;27;45634;-71
2022/03/17 03:23:20;;;;;;;;;20.00;18.33;;;;;9.96;72.75;102137.97;5080757;28;45167;-71
2022/03/17 03:25:45;;;;;;;;;19.67;14.00;;;;;10.04;72.82;102166.06;5080433;28;45327;-71
2022/03/17 03:28:12;;;;;;;;;17.33;14.33;;;;;9.94;72.87;102153.75;5080886;28;45400;-71
2022/03/17 03:30:38;;;;;;;;;24.67;17.00;;;;;9.83;72.71;102147.59;5080722;27;46478;-69
2022/03/17 03:33:06;;;;;;;;;22.33;18.67;;;;;9.86;72.37;102163.38;5080061;27;45731;-70
2022/03/17 03:38:17;;;;;;;;;21.00;16.67;;;;;9.84;72.51;102173.03;5080493;28;45422;-70
2022/03/17 03:40:42;;;;;;;;;17.33;13.33;;;;;9.83;72.22;102181.78;5080278;27;46154;-70
2022/03/17 03:43:07;;;;;;;;;12.33;12.33;;;;;9.59;72.35;102154.53;5079970;28;45719;-70
2022/03/17 03:45:33;;;;;;;;;16.67;13.33;;;;;9.71;72.40;102185.25;5080664;27;45396;-70
2022/03/17 03:47:59;;;;;;;;;15.00;12.67;;;;;9.52;71.52;102156.25;5080547;27;45422;-71
2022/03/17 03:50:25;;;;;;;;;15.33;14.00;;;;;9.67;72.25;102194.00;5079703;28;46674;-69
2022/03/17 03:52:51;;;;;;;;;14.00;12.33;;;;;9.70;71.58;102208.06;5080134;27;45313;-70
2022/03/17 03:55:17;;;;;;;;;12.00;12.00;;;;;9.69;71.60;102214.19;5080197;28;45388;-70
2022/03/17 03:57:42;;;;;;;;;11.67;10.67;;;;;9.68;71.46;102209.78;5080529;27;45181;-71
2022/03/17 04:02:51;;;;;;;;;15.00;12.33;;;;;9.47;71.88;102191.25;5079577;27;45270;-70
2022/03/17 04:05:19;;;;;;;;;20.00;16.00;;;;;9.70;71.99;102236.97;5079988;27;45384;-70
2022/03/17 04:07:45;;;;;;;;;10.00;10.00;;;;;9.70;72.01;102243.97;5080832;27;45466;-70
2022/03/17 04:10:10;;;;;;;;;18.33;14.33;;;;;9.66;71.27;102248.34;5080045;28;46283;-70
2022/03/17 04:12:36;;;;;;;;;13.67;13.67;;;;;9.69;71.39;102251.00;5079959;27;45388;-69
2022/03/17 04:15:01;;;;;;;;;13.67;11.67;;;;;9.70;71.53;102259.75;5079906;27;45310;-70
2022/03/17 04:17:27;;;;;;;;;12.67;11.33;;;;;9.74;70.96;102266.78;5079119;27;45300;-69
2022/03/17 04:19:52;;;;;;;;;13.00;12.67;;;;;9.74;70.58;102275.59;5079323;27;46574;-69
2022/03/17 04:22:17;;;;;;;;;9.67;9.67;;;;;9.73;71.16;102276.44;5079581;27;45350;-69
2022/03/17 04:24:43;;;;;;;;;14.00;11.00;;;;;9.64;71.12;102267.63;5079936;27;45839;-70
2022/03/17 04:27:08;;;;;;;;;12.00;10.33;;;;;9.48;71.53;102237.72;5080042;28;45402;-69
2022/03/17 04:29:34;;;;;;;;;14.33;10.33;;;;;9.62;70.54;102272.00;5078320;28;48345;-71
2022/03/17 04:31:59;;;;;;;;;9.33;9.33;;;;;9.69;70.83;102281.69;5079596;27;45401;-70
2022/03/17 04:34:24;;;;;;;;;12.00;9.00;;;;;9.68;70.96;102287.81;5079511;28;45383;-69
2022/03/17 04:36:50;;;;;;;;;13.33;11.33;;;;;9.69;70.70;102297.47;5079663;27;45280;-71
2022/03/17 04:39:16;;;;;;;;;12.33;7.67;;;;;9.69;70.71;102308.84;5079159;27;45409;-71
2022/03/17 04:41:42;;;;;;;;;8.33;8.33;;;;;9.71;70.97;102311.50;5079409;27;45338;-70
2022/03/17 04:44:08;;;;;;;;;11.67;9.67;;;;;9.73;71.25;102315.00;5079585;27;45237;-70
2022/03/17 04:46:34;;;;;;;;;12.00;8.33;;;;;9.75;71.32;102331.69;5079818;28;45262;-70
2022/03/17 04:49:00;;;;;;;;;15.00;10.33;;;;;9.74;70.72;102320.31;5079224;27;45289;-70
2022/03/17 04:51:26;;;;;;;;;13.00;13.00;;;;;9.75;71.47;102344.84;5078621;27;45306;-70
2022/03/17 04:53:51;;;;;;;;;12.67;10.67;;;;;9.66;71.07;102331.66;5079353;27;45301;-70
2022/03/17 04:56:17;;;;;;;;;11.00;11.00;;;;;9.75;71.02;102353.59;5079502;28;45451;-70
2022/03/17 04:58:44;;;;;;;;;9.67;9.00;;;;;9.64;71.11;102330.75;5079100;27;47418;-70
2022/03/17 05:01:12;;;;;;;;;9.33;7.33;;;;;9.72;71.04;102347.47;5078297;27;45541;-69
2022/03/17 05:03:41;;;;;;;;;13.33;11.00;;;;;9.54;70.68;102335.03;5079205;27;45433;-69
2022/03/17 05:06:11;;;;;;;;;12.67;11.00;;;;;9.61;70.54;102354.38;5079226;27;45238;-70
2022/03/17 05:08:36;;;;;;;;;14.00;12.00;;;;;9.67;70.58;102368.47;5078749;27;45717;-70
2022/03/17 05:11:07;;;;;;;;;12.00;9.33;;;;;9.64;69.80;102359.66;5072776;27;45653;-69
2022/03/17 05:13:33;;;;;;;;;12.67;8.33;;;;;9.55;70.34;102357.84;5068987;27;45851;-71
2022/03/17 05:15:59;;;;;;;;;13.67;9.67;;;;;9.20;69.71;102303.25;5074549;28;45476;-71
2022/03/17 05:18:25;;;;;;;;;17.33;13.33;;;;;9.56;69.54;102378.03;5058224;28;45371;-71
2022/03/17 05:20:51;;;;;;;;;8.67;7.00;;;;;9.56;69.54;102378.03;5058204;28;45396;-71
2022/03/17 05:23:19;;;;;;;;;13.67;10.00;;;;;9.54;69.49;102387.63;5062114;28;45376;-71
2022/03/17 05:25:47;;;;;;;;;12.67;10.67;;;;;9.54;69.67;102393.78;5079051;27;45345;-71
2022/03/17 05:28:13;;;;;;;;;12.00;8.00;;;;;9.49;69.38;102384.97;5077227;27;45427;-70
2022/03/17 05:30:40;;;;;;;;;7.00;7.00;;;;;9.22;69.32;102351.44;5078733;27;45328;-70
2022/03/17 05:33:07;;;;;;;;;11.67;7.33;;;;;9.49;69.10;102402.50;5078490;27;45178;-71
2022/03/17 05:35:33;;;;;;;;;8.00;8.00;;;;;9.47;69.87;102410.38;5078695;27;45249;-71
2022/03/17 05:38:00;;;;;;;;;11.33;9.33;;;;;9.51;69.60;102412.19;5078253;28;45481;-70
2022/03/17 05:40:26;;;;;;;;;8.00;7.00;;;;;9.50;69.24;102415.66;5078158;27;45534;-70
2022/03/17 05:42:57;;;;;;;;;8.00;7.00;;;;;9.44;69.55;102405.09;5078641;27;45391;-70
2022/03/17 05:45:27;;;;;;;;;9.67;9.67;;;;;9.52;69.93;102429.69;5078938;28;45271;-70
2022/03/17 05:47:58;;;;;;;;;12.33;9.00;;;;;9.44;69.87;102414.72;5078269;27;45400;-70
2022/03/17 05:50:25;;;;;;;;;8.67;8.00;;;;;9.49;69.55;102431.44;5077953;28;45267;-69
2022/03/17 05:52:52;;;;;;;;;7.67;7.00;;;;;9.41;69.91;102428.75;5078492;27;45319;-70
2022/03/17 05:55:20;;;;;;;;;9.00;6.00;;;;;9.42;69.92;102435.75;5078158;28;45296;-77
2022/03/17 05:57:46;;;;;;;;;10.33;7.00;;;;;9.47;69.80;102460.34;5078171;27;45458;-77
2022/03/17 06:00:16;;;;;;;;;9.00;7.00;;;;;9.41;70.22;102455.91;5077863;27;45297;-75
2022/03/17 06:02:42;;;;;;;;;14.33;11.67;;;;;9.51;70.08;102474.38;5078029;27;45360;-73
2022/03/17 06:05:08;;;;;;;;;9.33;7.00;;;;;9.28;70.35;102434.72;5077645;27;45410;-72
2022/03/17 06:07:37;;;;;;;;;6.00;6.00;;;;;9.55;70.07;102481.44;5077488;27;47583;-74
2022/03/17 06:10:05;;;;;;;;;4.50;4.50;;;;;9.41;70.26;102460.28;5077643;27;45498;-72
2022/03/17 06:12:31;;;;;;;;;4.67;4.67;;;;;9.52;70.07;102481.41;5078260;27;45482;-75
2022/03/17 06:14:57;;;;;;;;;5.00;4.67;;;;;9.48;69.82;102471.72;5078031;27;45406;-76
2022/03/17 06:17:22;;;;;;;;;6.00;5.33;;;;;9.40;69.70;102477.78;5077823;27;46285;-76
2022/03/17 06:19:48;;;;;;;;;6.33;4.33;;;;;9.42;69.82;102485.69;5077855;27;45318;-76
2022/03/17 06:22:13;;;;;;;;;4.67;4.67;;;;;9.47;69.52;102502.41;5077678;27;45417;-75
2022/03/17 06:24:38;;;;;;;;;21.67;17.67;;;;;9.38;69.40;102489.16;5078124;28;45162;-74
2022/03/17 06:27:04;;;;;;;;;4.33;4.33;;;;;9.46;70.01;102508.53;5077697;28;45478;-71
2022/03/17 06:29:29;;;;;;;;;4.00;4.00;;;;;9.48;69.38;102517.31;5077798;28;45304;-72
2022/03/17 06:31:55;;;;;;;;;6.00;4.67;;;;;9.54;69.27;102525.28;5075766;28;45257;-70
2022/03/17 06:34:20;;;;;;;;;13.33;7.00;;;;;9.48;69.88;102513.81;5077895;27;45300;-70
2022/03/17 06:36:46;;;;;;;;;9.67;5.33;;;;;9.50;69.32;102525.22;5077707;27;45284;-73
2022/03/17 06:39:11;;;;;;;;;4.67;4.67;;;;;9.31;69.06;102493.47;5076893;27;45194;-72
2022/03/17 06:41:36;;;;;;;;;4.67;4.67;;;;;9.58;69.23;102550.75;5077744;28;45271;-72
2022/03/17 06:44:02;;;;;;;;;5.33;5.33;;;;;9.55;68.72;102539.28;5077511;27;45471;-71
2022/03/17 06:46:29;;;;;;;;;6.00;6.00;;;;;9.61;67.71;102565.66;5077477;27;46637;-72
2022/03/17 06:48:55;;;;;;;;;4.67;4.67;;;;;9.60;68.64;102579.69;5077675;27;45360;-68
2022/03/17 06:51:20;;;;;;;;;4.50;3.50;;;;;9.57;68.10;102571.78;5077318;27;45319;-74
2022/03/17 06:53:45;;;;;;;;;7.00;4.00;;;;;9.58;67.47;102589.28;5077764;28;45415;-68
2022/03/17 06:56:11;;;;;;;;;4.00;4.00;;;;;9.56;67.44;102584.00;5077386;28;46622;-70
2022/03/17 06:58:37;;;;;;;;;8.00;5.00;;;;;9.56;67.43;102594.53;5076761;28;45410;-70
2022/03/17 07:01:02;;;;;;;;;16.00;15.33;;;;;9.57;67.52;102591.06;5076292;27;45561;-70
2022/03/17 07:03:27;;;;;;;;;6.67;5.00;;;;;9.62;67.09;102600.75;5077374;27;45308;-70
2022/03/17 07:05:53;;;;;;;;;5.67;5.00;;;;;9.64;66.35;102597.25;5076966;27;45526;-70
2022/03/17 07:08:18;;;;;;;;;6.67;4.00;;;;;9.60;67.97;102603.34;5077160;27;45415;-69
2022/03/17 07:10:43;;;;;;;;;10.67;6.00;;;;;9.58;67.02;102597.19;5076902;27;45299;-69
2022/03/17 07:13:09;;;;;;;;;7.67;6.00;;;;;9.73;66.64;102625.38;5077211;27;45453;-69
2022/03/17 07:15:34;;;;;;;;;4.33;4.00;;;;;9.67;66.82;102617.44;5076989;27;46172;-70
2022/03/17 07:18:00;;;;;;;;;6.00;5.67;;;;;9.79;66.49;102635.09;5077004;27;45364;-70
2022/03/17 07:20:25;;;;;;;;;5.33;5.00;;;;;9.68;66.83;102617.47;5076087;27;45491;-70
2022/03/17 07:22:51;;;;;;;;;4.67;4.67;;;;;9.78;65.94;102642.13;5076962;28;45365;-70
2022/03/17 07:25:20;;;;;;;;;8.00;7.00;;;;;9.81;66.46;102647.41;5076925;28;46106;-70
2022/03/17 07:27:48;;;;;;;;;6.00;5.00;;;;;9.88;65.73;102658.91;5076950;27;45322;-69
2022/03/17 07:30:20;;;;;;;;;6.33;6.00;;;;;9.83;65.22;102656.22;5077050;27;45316;-70
2022/03/17 07:32:48;;;;;;;;;6.33;6.33;;;;;9.91;65.36;102672.09;5077026;27;45257;-70
2022/03/17 07:35:14;;;;;;;;;5.00;5.00;;;;;9.82;65.59;102645.69;5076581;28;46181;-70
2022/03/17 07:37:40;;;;;;;;;7.67;5.67;;;;;9.78;64.17;102652.66;5075301;28;45751;-70
2022/03/17 07:40:07;;;;;;;;;4.67;4.00;;;;;9.92;65.09;102679.13;5076279;27;45292;-70
2022/03/17 07:42:32;;;;;;;;;9.33;7.00;;;;;9.89;64.52;102672.06;5075634;28;45340;-70
2022/03/17 07:44:59;;;;;;;;;7.00;5.33;;;;;9.83;64.13;102664.13;5076631;27;45618;-71
2022/03/17 07:47:24;;;;;;;;;4.00;4.00;;;;;9.69;64.30;102637.66;5076209;27;45416;-71
2022/03/17 07:49:50;;;;;;;;;6.67;6.67;;;;;9.89;64.56;102677.34;5076579;28;45476;-71
2022/03/17 07:52:16;;;;;;;;;9.00;6.33;;;;;9.95;64.17;102694.94;5078110;27;45446;-71
2022/03/17 07:54:41;;;;;;;;;5.33;5.00;;;;;9.97;64.81;102692.34;5080018;27;46564;-71
2022/03/17 07:57:08;;;;;;;;;8.00;5.00;;;;;9.93;64.10;102691.41;5080157;28;45468;-71
2022/03/17 07:59:33;;;;;;;;;5.33;5.33;;;;;9.90;63.75;102681.75;5079990;27;45325;-71
2022/03/17 08:01:59;;;;;;;;;5.33;5.00;;;;;9.91;64.32;102698.41;5079855;28;45308;-71
2022/03/17 08:04:25;;;;;;;;;7.00;7.00;;;;;9.96;64.19;102694.06;5080085;28;45449;-71
2022/03/17 08:06:53;;;;;;;;;5.00;5.00;;;;;9.97;64.03;102698.47;5079662;27;45331;-71
2022/03/17 08:09:22;;;;;;;;;11.00;8.00;;;;;10.02;63.66;102711.66;5079831;27;45391;-71
2022/03/17 08:11:48;;;;;;;;;6.33;5.67;;;;;10.04;64.55;102709.97;5079982;27;45497;-71
2022/03/17 08:14:16;;;;;;;;;5.67;5.67;;;;;10.13;64.68;102728.47;5079583;27;47238;-73
2022/03/17 08:16:44;;;;;;;;;7.33;6.33;;;;;10.14;64.24;102731.97;5079778;27;45455;-72
2022/03/17 08:19:13;;;;;;;;;10.00;6.00;;;;;10.16;64.69;102733.75;5079231;27;45490;-71
2022/03/17 08:21:39;;;;;;;;;5.33;4.00;;;;;10.13;64.38;102730.22;5079600;27;45258;-72
2022/03/17 08:24:06;;;;;;;;;5.67;5.00;;;;;10.18;64.39;102739.94;5079227;27;47153;-72
2022/03/17 08:26:32;;;;;;;;;8.67;6.00;;;;;9.91;64.31;102690.50;5078219;28;45476;-73
2022/03/17 08:28:57;;;;;;;;;8.33;6.00;;;;;10.16;63.36;102733.75;5079790;28;45153;-73
2022/03/17 08:31:23;;;;;;;;;6.00;5.00;;;;;10.33;63.47;102752.38;5078871;28;45628;-73
2022/03/17 08:33:50;;;;;;;;;6.33;6.33;;;;;10.40;62.68;102764.78;5079114;27;45468;-73
2022/03/17 08:36:15;;;;;;;;;8.33;6.00;;;;;10.38;62.71;102752.47;5079621;27;45315;-73
2022/03/17 08:38:41;;;;;;;;;6.00;4.67;;;;;10.50;63.25;102770.13;5079287;27;45462;-73
2022/03/17 08:41:07;;;;;;;;;9.00;8.00;;;;;10.48;62.33;102767.50;5079414;28;45379;-72
2022/03/17 08:43:32;;;;;;;;;5.00;3.25;;;;;10.52;63.45;102773.69;5079633;27;46294;-73
2022/03/17 08:51:26;;;;;;;;;9.00;9.00;;;;;10.64;62.95;102792.25;5079419;28;45453;-70
2022/03/17 08:53:52;;;;;;;;;12.67;8.00;;;;;10.62;62.70;102788.72;5079054;27;45325;-71
2022/03/17 08:56:17;;;;;;;;;10.67;8.33;;;;;10.68;62.58;102787.91;5078865;27;45455;-71
2022/03/17 08:58:45;;;;;;;;;8.33;7.00;;;;;10.72;63.07;102798.47;5079265;27;45293;-70
2022/03/17 09:01:11;;;;;;;;;10.67;7.00;;;;;10.76;62.77;102800.28;5079433;27;45292;-71
2022/03/17 09:03:36;;;;;;;;;13.33;9.33;;;;;10.82;63.04;102806.47;5078130;27;46332;-71
2022/03/17 09:06:02;;;;;;;;;10.00;8.67;;;;;10.86;62.52;102797.72;5079256;27;45166;-71
2022/03/17 09:08:28;;;;;;;;;14.00;12.00;;;;;10.91;62.59;102785.47;5078864;27;45734;-71
2022/03/17 09:10:55;;;;;;;;;11.67;9.67;;;;;11.10;62.20;102816.38;5079125;27;45441;-71
2022/03/17 09:13:22;;;;;;;;;14.00;14.00;;;;;11.18;61.72;102821.72;5078502;28;45346;-71
2022/03/17 09:15:49;;;;;;;;;16.67;14.33;;;;;11.23;62.25;102820.00;5077697;28;45319;-72
2022/03/17 09:18:14;;;;;;;;;9.00;9.00;;;;;11.24;62.64;102827.06;5079029;27;45339;-72
2022/03/17 09:20:41;;;;;;;;;14.00;13.33;;;;;11.30;62.57;102832.38;5077903;28;45353;-72
2022/03/17 09:23:07;;;;;;;;;47.00;37.67;;;;;11.37;63.09;102835.06;5078063;27;45531;-72
2022/03/17 09:25:34;;;;;;;;;18.33;17.00;;;;;11.42;62.66;102836.84;5078796;27;45259;-72
2022/03/17 09:28:00;;;;;;;;;13.33;10.67;;;;;11.42;62.80;102833.34;5078285;27;45400;-72
2022/03/17 09:30:26;;;;;;;;;19.00;14.33;;;;;11.50;62.98;102845.72;5078730;28;45291;-72
2022/03/17 09:32:54;;;;;;;;;13.67;13.33;;;;;11.52;62.95;102832.53;5078447;27;46435;-71
2022/03/17 09:35:21;;;;;;;;;12.33;11.33;;;;;11.67;61.94;102843.16;5078372;27;45822;-71
2022/03/17 09:37:46;;;;;;;;;19.33;17.33;;;;;11.59;61.86;102830.81;5078527;27;45290;-78
2022/03/17 09:40:13;;;;;;;;;11.33;11.33;;;;;11.66;61.92;102841.44;5078554;28;45565;-72
2022/03/17 09:42:39;;;;;;;;;13.33;13.33;;;;;11.68;62.16;102837.03;5078426;27;48555;-72
2022/03/17 09:45:06;;;;;;;;;14.67;12.00;;;;;11.48;61.65;102799.97;5077788;27;45443;-71
2022/03/17 09:47:37;;;;;;;;;18.00;18.00;;;;;11.68;61.56;102837.03;5074827;28;45288;-71
2022/03/17 09:50:07;;;;;;;;;18.33;13.33;;;;;11.71;61.88;102846.72;5078617;27;45314;-72
2022/03/17 09:52:36;;;;;;;;;18.67;14.33;;;;;11.75;61.36;102837.97;5078018;28;46425;-71
2022/03/17 09:55:03;;;;;;;;;21.00;14.33;;;;;11.71;61.67;102822.97;5078120;27;45220;-71
2022/03/17 09:57:28;;;;;;;;;14.67;13.00;;;;;11.83;61.19;102825.69;5078501;27;45209;-72
2022/03/17 09:59:56;;;;;;;;;12.67;9.33;;;;;11.97;61.03;102838.13;5078340;27;45225;-71
2022/03/17 10:02:22;;;;;;;;;16.67;12.67;;;;;12.11;59.91;102849.63;5078010;27;47531;-71
2022/03/17 10:04:48;;;;;;;;;17.00;13.33;;;;;12.19;59.22;102844.38;5078081;27;45352;-72
2022/03/17 10:07:17;;;;;;;;;14.67;12.67;;;;;12.23;59.69;102830.31;5077872;28;45359;-70
2022/03/17 10:09:43;;;;;;;;;23.67;16.00;;;;;12.22;58.93;102822.38;5078524;27;45316;-70
2022/03/17 10:12:10;;;;;;;;;19.67;16.00;;;;;12.49;58.74;102853.28;5077667;27;45360;-70
2022/03/17 10:14:39;;;;;;;;;18.67;15.00;;;;;12.69;58.50;102861.28;5076169;27;45249;-75
2022/03/17 10:17:10;;;;;;;;;18.00;14.00;;;;;12.80;57.91;102861.31;5078128;27;45295;-71
2022/03/17 10:19:36;;;;;;;;;15.00;15.00;;;;;12.95;57.56;102866.59;5076310;28;45367;-70
2022/03/17 10:22:09;;;;;;;;;16.33;15.67;;;;;13.12;56.67;102866.63;5076773;27;47519;-70
2022/03/17 10:24:36;;;;;;;;;17.67;14.67;;;;;13.28;56.38;102870.19;5076537;27;45399;-70
2022/03/17 10:27:03;;;;;;;;;18.00;18.00;;;;;13.46;56.28;102884.31;5076866;28;45464;-71
2022/03/17 10:29:29;;;;;;;;;18.00;16.00;;;;;13.61;56.17;102888.72;5077306;27;45496;-71
2022/03/17 10:32:04;;;;;;;;;18.00;14.33;;;;;13.73;55.29;102878.13;5076198;27;45389;-71
2022/03/17 10:34:55;;;;;;;;;17.33;14.67;;;;;13.99;55.57;102898.38;5076299;27;45553;-71
2022/03/17 10:37:22;;;;;;;;;18.00;16.67;;;;;14.10;53.85;102889.53;5077113;27;45408;-71
2022/03/17 10:39:53;;;;;;;;;13.00;12.00;;;;;14.27;53.71;102907.13;5076874;27;45533;-71
2022/03/17 10:42:21;;;;;;;;;23.33;21.00;;;;;14.24;52.53;102896.53;5076149;27;45488;-71
2022/03/17 10:44:51;;;;;;;;;12.00;11.00;;;;;14.10;54.53;102868.31;5076874;27;45497;-71
2022/03/17 10:47:31;;;;;;;;;18.00;16.67;;;;;14.22;53.23;102898.31;5076519;27;45358;-71
2022/03/17 10:50:19;;;;;;;;;16.33;14.67;;;;;14.26;52.65;102908.00;5076920;27;45458;-71
2022/03/17 10:52:57;;;;;;;;;19.67;14.00;;;;;14.32;53.69;102918.59;5076382;27;46642;-71
2022/03/17 10:55:26;;;;;;;;;13.33;12.33;;;;;14.20;51.63;102919.53;5075776;28;45785;-71
2022/03/17 10:58:11;;;;;;;;;17.00;13.33;;;;;14.23;53.23;102915.97;5076844;27;45281;-71
2022/03/17 11:00:51;;;;;;;;;14.67;11.33;;;;;14.10;51.21;102915.09;5076863;28;45801;-72
2022/03/17 11:03:18;;;;;;;;;19.33;12.00;;;;;13.90;52.11;102921.34;5075762;27;45690;-71
2022/03/17 11:05:44;;;;;;;;;16.67;13.00;;;;;13.77;51.95;102927.53;5076533;28;45390;-72
2022/03/17 11:08:10;;;;;;;;;11.67;11.33;;;;;13.55;53.05;102932.84;5076618;27;45371;-71
2022/03/17 11:10:40;;;;;;;;;13.67;12.33;;;;;13.40;52.11;102935.47;5075996;27;45378;-71
2022/03/17 11:13:10;;;;;;;;;15.00;12.67;;;;;13.40;52.92;102938.13;5076392;27;45349;-71
2022/03/17 11:15:41;;;;;;;;;16.67;14.33;;;;;13.47;52.17;102939.03;5075936;27;45435;-72
2022/03/17 11:18:18;;;;;;;;;9.00;9.00;;;;;13.53;52.71;102945.19;5076282;27;45236;-71
2022/03/17 11:20:45;;;;;;;;;10.33;8.00;;;;;13.57;51.82;102938.13;5075549;27;45502;-72
2022/03/17 11:23:19;;;;;;;;;8.67;7.67;;;;;13.65;51.37;102946.97;5076272;27;46230;-71
2022/03/17 11:25:56;;;;;;;;;10.00;8.00;;;;;13.59;51.92;102931.06;5076953;27;45433;-70
2022/03/17 11:28:39;;;;;;;;;13.67;13.67;;;;;13.66;51.38;102955.78;5068964;28;45508;-72
2022/03/17 11:31:08;;;;;;;;;10.00;10.00;;;;;13.33;51.00;102912.50;5080121;27;45394;-72